sensor_id;sensor_type;location;lat;lon;timestamp;P1;durP1;ratioP1;P2;durP2;ratioP2
11283;SDS011;5698;47.332;11.180;2022-12-08T00:00:04;2.20;;;2.00;;
11283;SDS011;5698;47.332;11.180;2022-12-08T00:02:32;1.90;;;1.70;;
11283;SDS011;5698;47.332;11.180;2022-12-08T00:04:59;2.37;;;1.83;;
11283;SDS011;5698;47.332;11.180;2022-12-08T00:07:44;2.00;;;1.80;;
11283;SDS011;5698;47.332;11.180;2022-12-08T00:10:28;2.30;;;2.10;;
11283;SDS011;5698;47.332;11.180;2022-12-08T00:12:57;2.63;;;2.07;;
11283;SDS011;5698;47.332;11.180;2022-12-08T00:15:23;2.30;;;1.90;;
11283;SDS011;5698;47.332;11.180;2022-12-08T00:17:50;2.33;;;2.00;;
11283;SDS011;5698;47.332;11.180;2022-12-08T00:20:17;2.30;;;1.90;;
11283;SDS011;5698;47.332;11.180;2022-12-08T00:22:44;2.17;;;1.73;;
11283;SDS011;5698;47.332;11.180;2022-12-08T00:25:11;2.20;;;2.00;;
11283;SDS011;5698;47.332;11.180;2022-12-08T00:27:39;2.10;;;1.80;;
11283;SDS011;5698;47.332;11.180;2022-12-08T00:30:08;2.17;;;1.97;;
11283;SDS011;5698;47.332;11.180;2022-12-08T00:32:36;4.47;;;2.50;;
11283;SDS011;5698;47.332;11.180;2022-12-08T00:35:03;2.80;;;2.23;;
11283;SDS011;5698;47.332;11.180;2022-12-08T00:37:30;2.57;;;2.20;;
11283;SDS011;5698;47.332;11.180;2022-12-08T00:39:57;2.87;;;2.60;;
11283;SDS011;5698;47.332;11.180;2022-12-08T00:42:24;3.10;;;2.80;;
11283;SDS011;5698;47.332;11.180;2022-12-08T00:44:51;2.67;;;2.47;;
11283;SDS011;5698;47.332;11.180;2022-12-08T00:47:20;3.13;;;2.83;;
11283;SDS011;5698;47.332;11.180;2022-12-08T00:49:47;3.43;;;3.03;;
11283;SDS011;5698;47.332;11.180;2022-12-08T00:52:14;3.77;;;2.90;;
11283;SDS011;5698;47.332;11.180;2022-12-08T00:54:41;3.27;;;2.97;;
11283;SDS011;5698;47.332;11.180;2022-12-08T00:57:08;3.90;;;3.50;;
11283;SDS011;5698;47.332;11.180;2022-12-08T00:59:35;5.60;;;3.70;;
11283;SDS011;5698;47.332;11.180;2022-12-08T01:02:02;5.03;;;4.20;;
11283;SDS011;5698;47.332;11.180;2022-12-08T01:04:31;6.53;;;4.47;;
11283;SDS011;5698;47.332;11.180;2022-12-08T01:06:58;4.67;;;4.23;;
11283;SDS011;5698;47.332;11.180;2022-12-08T01:09:25;5.87;;;4.17;;
11283;SDS011;5698;47.332;11.180;2022-12-08T01:11:52;7.53;;;4.53;;
11283;SDS011;5698;47.332;11.180;2022-12-08T01:14:19;6.53;;;4.70;;
11283;SDS011;5698;47.332;11.180;2022-12-08T01:16:46;6.63;;;4.80;;
11283;SDS011;5698;47.332;11.180;2022-12-08T01:19:13;6.47;;;4.90;;
11283;SDS011;5698;47.332;11.180;2022-12-08T01:21:43;9.50;;;5.73;;
11283;SDS011;5698;47.332;11.180;2022-12-08T01:24:11;6.50;;;5.70;;
11283;SDS011;5698;47.332;11.180;2022-12-08T01:26:39;7.50;;;5.90;;
11283;SDS011;5698;47.332;11.180;2022-12-08T01:29:07;7.60;;;5.67;;
11283;SDS011;5698;47.332;11.180;2022-12-08T01:31:35;7.40;;;5.77;;
11283;SDS011;5698;47.332;11.180;2022-12-08T01:34:02;7.90;;;5.13;;
11283;SDS011;5698;47.332;11.180;2022-12-08T01:36:30;7.83;;;5.57;;
11283;SDS011;5698;47.332;11.180;2022-12-08T01:39:00;6.20;;;5.60;;
11283;SDS011;5698;47.332;11.180;2022-12-08T01:41:28;6.60;;;5.50;;
11283;SDS011;5698;47.332;11.180;2022-12-08T01:43:57;8.33;;;5.97;;
11283;SDS011;5698;47.332;11.180;2022-12-08T01:46:26;6.43;;;5.67;;
11283;SDS011;5698;47.332;11.180;2022-12-08T01:48:56;7.77;;;6.03;;
11283;SDS011;5698;47.332;11.180;2022-12-08T01:51:27;7.20;;;5.33;;
11283;SDS011;5698;47.332;11.180;2022-12-08T01:53:57;6.30;;;5.67;;
11283;SDS011;5698;47.332;11.180;2022-12-08T01:56:29;5.47;;;4.93;;
11283;SDS011;5698;47.332;11.180;2022-12-08T01:58:59;6.80;;;5.20;;
11283;SDS011;5698;47.332;11.180;2022-12-08T02:01:26;6.13;;;4.77;;
11283;SDS011;5698;47.332;11.180;2022-12-08T02:03:55;5.90;;;5.30;;
11283;SDS011;5698;47.332;11.180;2022-12-08T02:06:24;7.70;;;5.30;;
11283;SDS011;5698;47.332;11.180;2022-12-08T02:08:55;5.87;;;5.27;;
11283;SDS011;5698;47.332;11.180;2022-12-08T02:11:26;6.10;;;5.43;;
11283;SDS011;5698;47.332;11.180;2022-12-08T02:13:52;8.50;;;5.50;;
11283;SDS011;5698;47.332;11.180;2022-12-08T02:16:25;7.53;;;5.23;;
11283;SDS011;5698;47.332;11.180;2022-12-08T02:19:01;7.80;;;5.97;;
11283;SDS011;5698;47.332;11.180;2022-12-08T02:21:41;6.37;;;5.30;;
11283;SDS011;5698;47.332;11.180;2022-12-08T02:24:13;6.00;;;5.00;;
11283;SDS011;5698;47.332;11.180;2022-12-08T02:30:01;6.03;;;5.40;;
11283;SDS011;5698;47.332;11.180;2022-12-08T02:32:41;6.17;;;5.27;;
11283;SDS011;5698;47.332;11.180;2022-12-08T02:35:29;6.30;;;5.17;;
11283;SDS011;5698;47.332;11.180;2022-12-08T02:38:03;5.50;;;5.00;;
11283;SDS011;5698;47.332;11.180;2022-12-08T02:40:38;7.67;;;6.10;;
11283;SDS011;5698;47.332;11.180;2022-12-08T02:43:16;7.80;;;6.03;;
11283;SDS011;5698;47.332;11.180;2022-12-08T02:45:51;8.33;;;6.53;;
11283;SDS011;5698;47.332;11.180;2022-12-08T02:48:22;6.13;;;5.60;;
11283;SDS011;5698;47.332;11.180;2022-12-08T02:50:52;7.60;;;6.63;;
11283;SDS011;5698;47.332;11.180;2022-12-08T02:53:19;7.07;;;6.33;;
11283;SDS011;5698;47.332;11.180;2022-12-08T02:55:48;7.30;;;5.80;;
11283;SDS011;5698;47.332;11.180;2022-12-08T02:58:41;6.83;;;5.67;;
11283;SDS011;5698;47.332;11.180;2022-12-08T03:01:43;6.20;;;4.90;;
11283;SDS011;5698;47.332;11.180;2022-12-08T03:04:20;7.37;;;5.37;;
11283;SDS011;5698;47.332;11.180;2022-12-08T03:07:01;6.60;;;5.03;;
11283;SDS011;5698;47.332;11.180;2022-12-08T03:09:33;5.70;;;4.87;;
11283;SDS011;5698;47.332;11.180;2022-12-08T03:12:05;8.93;;;5.63;;
11283;SDS011;5698;47.332;11.180;2022-12-08T03:14:39;5.93;;;5.20;;
11283;SDS011;5698;47.332;11.180;2022-12-08T03:17:11;7.93;;;6.13;;
11283;SDS011;5698;47.332;11.180;2022-12-08T03:19:42;7.53;;;6.30;;
11283;SDS011;5698;47.332;11.180;2022-12-08T03:22:12;6.67;;;5.83;;
11283;SDS011;5698;47.332;11.180;2022-12-08T03:24:42;6.27;;;5.30;;
11283;SDS011;5698;47.332;11.180;2022-12-08T03:27:11;10.23;;;6.60;;
11283;SDS011;5698;47.332;11.180;2022-12-08T03:29:43;6.43;;;5.70;;
11283;SDS011;5698;47.332;11.180;2022-12-08T03:32:13;8.47;;;6.20;;
11283;SDS011;5698;47.332;11.180;2022-12-08T03:34:47;7.70;;;6.07;;
11283;SDS011;5698;47.332;11.180;2022-12-08T03:37:18;6.87;;;5.87;;
11283;SDS011;5698;47.332;11.180;2022-12-08T03:39:46;7.03;;;5.83;;
11283;SDS011;5698;47.332;11.180;2022-12-08T03:42:13;8.20;;;5.70;;
11283;SDS011;5698;47.332;11.180;2022-12-08T03:44:40;7.63;;;6.00;;
11283;SDS011;5698;47.332;11.180;2022-12-08T03:47:07;6.50;;;5.77;;
11283;SDS011;5698;47.332;11.180;2022-12-08T03:49:34;7.30;;;6.57;;
11283;SDS011;5698;47.332;11.180;2022-12-08T03:52:01;7.77;;;6.23;;
11283;SDS011;5698;47.332;11.180;2022-12-08T03:54:30;8.40;;;6.20;;
11283;SDS011;5698;47.332;11.180;2022-12-08T03:56:57;6.67;;;5.97;;
11283;SDS011;5698;47.332;11.180;2022-12-08T03:59:24;7.33;;;6.27;;
11283;SDS011;5698;47.332;11.180;2022-12-08T04:01:51;7.73;;;6.47;;
11283;SDS011;5698;47.332;11.180;2022-12-08T04:04:18;6.97;;;6.30;;
11283;SDS011;5698;47.332;11.180;2022-12-08T04:06:45;6.43;;;5.83;;
11283;SDS011;5698;47.332;11.180;2022-12-08T04:09:12;9.17;;;6.83;;
11283;SDS011;5698;47.332;11.180;2022-12-08T04:11:40;10.00;;;6.50;;
11283;SDS011;5698;47.332;11.180;2022-12-08T04:14:08;6.93;;;6.17;;
11283;SDS011;5698;47.332;11.180;2022-12-08T04:16:35;6.83;;;6.13;;
11283;SDS011;5698;47.332;11.180;2022-12-08T04:19:02;9.07;;;6.30;;
11283;SDS011;5698;47.332;11.180;2022-12-08T04:21:29;6.67;;;5.37;;
11283;SDS011;5698;47.332;11.180;2022-12-08T04:23:56;5.93;;;5.23;;
11283;SDS011;5698;47.332;11.180;2022-12-08T04:26:23;7.57;;;5.67;;
11283;SDS011;5698;47.332;11.180;2022-12-08T04:28:51;6.47;;;5.43;;
11283;SDS011;5698;47.332;11.180;2022-12-08T04:31:18;7.50;;;5.93;;
11283;SDS011;5698;47.332;11.180;2022-12-08T04:33:45;9.83;;;5.80;;
11283;SDS011;5698;47.332;11.180;2022-12-08T04:36:13;7.07;;;6.17;;
11283;SDS011;5698;47.332;11.180;2022-12-08T04:38:40;6.63;;;5.60;;
11283;SDS011;5698;47.332;11.180;2022-12-08T04:41:07;6.90;;;5.63;;
11283;SDS011;5698;47.332;11.180;2022-12-08T04:43:34;6.13;;;4.77;;
11283;SDS011;5698;47.332;11.180;2022-12-08T04:46:04;5.63;;;5.03;;
11283;SDS011;5698;47.332;11.180;2022-12-08T04:48:31;6.30;;;4.93;;
11283;SDS011;5698;47.332;11.180;2022-12-08T04:50:58;6.20;;;4.83;;
11283;SDS011;5698;47.332;11.180;2022-12-08T04:53:25;6.00;;;4.97;;
11283;SDS011;5698;47.332;11.180;2022-12-08T04:55:52;5.70;;;4.60;;
11283;SDS011;5698;47.332;11.180;2022-12-08T04:58:19;6.37;;;4.73;;
11283;SDS011;5698;47.332;11.180;2022-12-08T05:00:47;5.77;;;4.53;;
11283;SDS011;5698;47.332;11.180;2022-12-08T05:03:15;5.10;;;4.60;;
11283;SDS011;5698;47.332;11.180;2022-12-08T05:05:43;4.60;;;4.10;;
11283;SDS011;5698;47.332;11.180;2022-12-08T05:08:10;5.00;;;4.50;;
11283;SDS011;5698;47.332;11.180;2022-12-08T05:10:37;4.13;;;3.73;;
11283;SDS011;5698;47.332;11.180;2022-12-08T05:13:04;3.80;;;3.33;;
11283;SDS011;5698;47.332;11.180;2022-12-08T05:15:31;5.23;;;4.10;;
11283;SDS011;5698;47.332;11.180;2022-12-08T05:17:58;3.87;;;3.57;;
11283;SDS011;5698;47.332;11.180;2022-12-08T05:20:27;5.00;;;4.10;;
11283;SDS011;5698;47.332;11.180;2022-12-08T05:22:54;4.23;;;3.83;;
11283;SDS011;5698;47.332;11.180;2022-12-08T05:25:21;4.90;;;3.60;;
11283;SDS011;5698;47.332;11.180;2022-12-08T05:27:48;4.27;;;3.83;;
11283;SDS011;5698;47.332;11.180;2022-12-08T05:30:15;4.57;;;3.43;;
11283;SDS011;5698;47.332;11.180;2022-12-08T05:32:42;4.73;;;3.73;;
11283;SDS011;5698;47.332;11.180;2022-12-08T05:35:09;5.17;;;3.50;;
11283;SDS011;5698;47.332;11.180;2022-12-08T05:37:37;4.50;;;3.37;;
11283;SDS011;5698;47.332;11.180;2022-12-08T05:40:05;5.33;;;3.43;;
11283;SDS011;5698;47.332;11.180;2022-12-08T05:42:32;4.07;;;3.30;;
11283;SDS011;5698;47.332;11.180;2022-12-08T05:44:59;3.80;;;3.07;;
11283;SDS011;5698;47.332;11.180;2022-12-08T05:47:26;4.23;;;3.63;;
11283;SDS011;5698;47.332;11.180;2022-12-08T05:49:53;3.30;;;2.90;;
11283;SDS011;5698;47.332;11.180;2022-12-08T05:52:20;3.87;;;2.90;;
11283;SDS011;5698;47.332;11.180;2022-12-08T05:54:49;3.90;;;3.13;;
11283;SDS011;5698;47.332;11.180;2022-12-08T05:57:16;3.63;;;2.87;;
11283;SDS011;5698;47.332;11.180;2022-12-08T05:59:43;3.93;;;2.50;;
11283;SDS011;5698;47.332;11.180;2022-12-08T06:02:09;2.63;;;2.30;;
11283;SDS011;5698;47.332;11.180;2022-12-08T06:04:36;4.00;;;2.70;;
11283;SDS011;5698;47.332;11.180;2022-12-08T06:07:03;2.80;;;2.40;;
11283;SDS011;5698;47.332;11.180;2022-12-08T06:09:30;2.90;;;2.60;;
11283;SDS011;5698;47.332;11.180;2022-12-08T06:11:59;3.47;;;2.70;;
11283;SDS011;5698;47.332;11.180;2022-12-08T06:14:26;2.80;;;2.50;;
11283;SDS011;5698;47.332;11.180;2022-12-08T06:16:53;3.20;;;2.90;;
11283;SDS011;5698;47.332;11.180;2022-12-08T06:19:20;4.67;;;3.40;;
11283;SDS011;5698;47.332;11.180;2022-12-08T06:21:47;4.23;;;3.67;;
11283;SDS011;5698;47.332;11.180;2022-12-08T06:24:14;3.17;;;2.87;;
11283;SDS011;5698;47.332;11.180;2022-12-08T06:26:41;3.37;;;2.97;;
11283;SDS011;5698;47.332;11.180;2022-12-08T06:29:09;4.93;;;3.33;;
11283;SDS011;5698;47.332;11.180;2022-12-08T06:31:36;3.27;;;2.93;;
11283;SDS011;5698;47.332;11.180;2022-12-08T06:34:03;4.53;;;3.83;;
11283;SDS011;5698;47.332;11.180;2022-12-08T06:36:30;3.40;;;2.87;;
11283;SDS011;5698;47.332;11.180;2022-12-08T06:38:58;4.63;;;3.47;;
11283;SDS011;5698;47.332;11.180;2022-12-08T06:41:25;4.10;;;3.43;;
11283;SDS011;5698;47.332;11.180;2022-12-08T06:43:54;3.83;;;3.30;;
11283;SDS011;5698;47.332;11.180;2022-12-08T06:46:23;4.50;;;3.87;;
11283;SDS011;5698;47.332;11.180;2022-12-08T06:48:50;5.03;;;3.40;;
11283;SDS011;5698;47.332;11.180;2022-12-08T06:51:17;3.43;;;2.97;;
11283;SDS011;5698;47.332;11.180;2022-12-08T06:53:46;2.90;;;2.60;;
11283;SDS011;5698;47.332;11.180;2022-12-08T06:56:13;3.53;;;2.87;;
11283;SDS011;5698;47.332;11.180;2022-12-08T06:58:44;2.80;;;2.40;;
11283;SDS011;5698;47.332;11.180;2022-12-08T07:01:11;2.50;;;2.30;;
11283;SDS011;5698;47.332;11.180;2022-12-08T07:03:40;3.00;;;2.20;;
11283;SDS011;5698;47.332;11.180;2022-12-08T07:06:09;3.33;;;2.40;;
11283;SDS011;5698;47.332;11.180;2022-12-08T07:08:41;2.53;;;2.10;;
11283;SDS011;5698;47.332;11.180;2022-12-08T07:11:08;2.50;;;2.30;;
11283;SDS011;5698;47.332;11.180;2022-12-08T07:13:35;2.27;;;2.03;;
11283;SDS011;5698;47.332;11.180;2022-12-08T07:16:03;3.13;;;2.37;;
11283;SDS011;5698;47.332;11.180;2022-12-08T07:18:31;3.10;;;2.20;;
11283;SDS011;5698;47.332;11.180;2022-12-08T07:21:02;1.77;;;1.60;;
11283;SDS011;5698;47.332;11.180;2022-12-08T07:23:30;2.33;;;2.13;;
11283;SDS011;5698;47.332;11.180;2022-12-08T07:25:58;2.90;;;1.87;;
11283;SDS011;5698;47.332;11.180;2022-12-08T07:28:26;1.90;;;1.70;;
11283;SDS011;5698;47.332;11.180;2022-12-08T07:30:55;2.13;;;1.93;;
11283;SDS011;5698;47.332;11.180;2022-12-08T07:33:21;1.90;;;1.67;;
11283;SDS011;5698;47.332;11.180;2022-12-08T07:35:52;2.13;;;1.80;;
11283;SDS011;5698;47.332;11.180;2022-12-08T07:38:21;2.47;;;1.70;;
11283;SDS011;5698;47.332;11.180;2022-12-08T07:40:48;2.50;;;1.80;;
11283;SDS011;5698;47.332;11.180;2022-12-08T07:43:15;3.60;;;1.90;;
11283;SDS011;5698;47.332;11.180;2022-12-08T07:45:43;1.63;;;1.53;;
11283;SDS011;5698;47.332;11.180;2022-12-08T07:48:10;2.03;;;1.83;;
11283;SDS011;5698;47.332;11.180;2022-12-08T07:50:37;2.00;;;1.80;;
11283;SDS011;5698;47.332;11.180;2022-12-08T07:53:04;2.77;;;2.03;;
11283;SDS011;5698;47.332;11.180;2022-12-08T07:55:32;2.10;;;1.90;;
11283;SDS011;5698;47.332;11.180;2022-12-08T07:57:59;2.50;;;1.97;;
11283;SDS011;5698;47.332;11.180;2022-12-08T08:00:26;1.83;;;1.73;;
11283;SDS011;5698;47.332;11.180;2022-12-08T08:02:53;3.50;;;2.10;;
11283;SDS011;5698;47.332;11.180;2022-12-08T08:05:21;2.10;;;2.00;;
11283;SDS011;5698;47.332;11.180;2022-12-08T08:07:48;2.23;;;1.93;;
11283;SDS011;5698;47.332;11.180;2022-12-08T08:10:15;3.40;;;3.10;;
11283;SDS011;5698;47.332;11.180;2022-12-08T08:12:43;6.33;;;5.33;;
11283;SDS011;5698;47.332;11.180;2022-12-08T08:15:10;4.07;;;2.93;;
11283;SDS011;5698;47.332;11.180;2022-12-08T08:17:37;3.37;;;2.40;;
11283;SDS011;5698;47.332;11.180;2022-12-08T08:20:05;9.63;;;6.13;;
11283;SDS011;5698;47.332;11.180;2022-12-08T08:22:33;19.57;;;11.93;;
11283;SDS011;5698;47.332;11.180;2022-12-08T08:25:00;9.27;;;6.47;;
11283;SDS011;5698;47.332;11.180;2022-12-08T08:27:27;9.73;;;6.57;;
11283;SDS011;5698;47.332;11.180;2022-12-08T08:29:56;8.00;;;5.30;;
11283;SDS011;5698;47.332;11.180;2022-12-08T08:32:23;13.97;;;7.13;;
11283;SDS011;5698;47.332;11.180;2022-12-08T08:34:50;6.07;;;4.83;;
11283;SDS011;5698;47.332;11.180;2022-12-08T08:37:17;7.73;;;4.40;;
11283;SDS011;5698;47.332;11.180;2022-12-08T08:39:44;3.57;;;2.60;;
11283;SDS011;5698;47.332;11.180;2022-12-08T08:42:11;5.20;;;1.77;;
11283;SDS011;5698;47.332;11.180;2022-12-08T08:44:38;2.47;;;1.80;;
11283;SDS011;5698;47.332;11.180;2022-12-08T08:47:06;5.47;;;2.93;;
11283;SDS011;5698;47.332;11.180;2022-12-08T08:49:33;4.17;;;2.83;;
11283;SDS011;5698;47.332;11.180;2022-12-08T08:52:02;3.43;;;1.97;;
11283;SDS011;5698;47.332;11.180;2022-12-08T08:54:30;2.07;;;1.77;;
11283;SDS011;5698;47.332;11.180;2022-12-08T08:56:57;3.17;;;2.13;;
11283;SDS011;5698;47.332;11.180;2022-12-08T08:59:25;3.70;;;2.70;;
11283;SDS011;5698;47.332;11.180;2022-12-08T09:01:53;6.67;;;4.10;;
11283;SDS011;5698;47.332;11.180;2022-12-08T09:04:22;5.13;;;3.63;;
11283;SDS011;5698;47.332;11.180;2022-12-08T09:06:49;3.63;;;2.77;;
11283;SDS011;5698;47.332;11.180;2022-12-08T09:09:16;2.33;;;1.90;;
11283;SDS011;5698;47.332;11.180;2022-12-08T09:11:43;3.00;;;2.50;;
11283;SDS011;5698;47.332;11.180;2022-12-08T09:14:11;8.77;;;6.00;;
11283;SDS011;5698;47.332;11.180;2022-12-08T09:16:38;2.50;;;2.00;;
11283;SDS011;5698;47.332;11.180;2022-12-08T09:19:05;3.03;;;2.70;;
11283;SDS011;5698;47.332;11.180;2022-12-08T09:21:34;2.87;;;2.17;;
11283;SDS011;5698;47.332;11.180;2022-12-08T09:24:01;4.57;;;2.90;;
11283;SDS011;5698;47.332;11.180;2022-12-08T09:26:28;2.80;;;2.10;;
11283;SDS011;5698;47.332;11.180;2022-12-08T09:28:55;3.27;;;1.77;;
11283;SDS011;5698;47.332;11.180;2022-12-08T09:31:22;2.30;;;1.20;;
11283;SDS011;5698;47.332;11.180;2022-12-08T09:33:50;3.20;;;1.93;;
11283;SDS011;5698;47.332;11.180;2022-12-08T09:36:17;2.07;;;1.93;;
11283;SDS011;5698;47.332;11.180;2022-12-08T09:38:45;5.50;;;2.73;;
11283;SDS011;5698;47.332;11.180;2022-12-08T09:41:13;7.73;;;2.23;;
11283;SDS011;5698;47.332;11.180;2022-12-08T09:43:49;5.53;;;2.10;;
11283;SDS011;5698;47.332;11.180;2022-12-08T09:46:23;2.97;;;1.80;;
11283;SDS011;5698;47.332;11.180;2022-12-08T09:48:54;2.47;;;1.80;;
11283;SDS011;5698;47.332;11.180;2022-12-08T09:51:25;3.43;;;2.37;;
11283;SDS011;5698;47.332;11.180;2022-12-08T09:53:55;3.23;;;1.93;;
11283;SDS011;5698;47.332;11.180;2022-12-08T09:56:26;2.17;;;1.53;;
11283;SDS011;5698;47.332;11.180;2022-12-08T09:58:57;3.07;;;1.30;;
11283;SDS011;5698;47.332;11.180;2022-12-08T10:01:28;2.00;;;1.50;;
11283;SDS011;5698;47.332;11.180;2022-12-08T10:03:58;3.73;;;2.67;;
11283;SDS011;5698;47.332;11.180;2022-12-08T10:06:26;3.67;;;2.63;;
11283;SDS011;5698;47.332;11.180;2022-12-08T10:09:01;3.50;;;1.67;;
11283;SDS011;5698;47.332;11.180;2022-12-08T10:11:38;3.70;;;2.47;;
11283;SDS011;5698;47.332;11.180;2022-12-08T10:14:13;3.60;;;2.07;;
11283;SDS011;5698;47.332;11.180;2022-12-08T10:16:48;2.97;;;1.90;;
11283;SDS011;5698;47.332;11.180;2022-12-08T10:19:18;3.13;;;1.57;;
11283;SDS011;5698;47.332;11.180;2022-12-08T10:21:47;5.53;;;1.97;;
11283;SDS011;5698;47.332;11.180;2022-12-08T10:24:17;2.63;;;2.10;;
11283;SDS011;5698;47.332;11.180;2022-12-08T10:26:48;2.20;;;1.40;;
11283;SDS011;5698;47.332;11.180;2022-12-08T10:29:15;9.03;;;3.50;;
11283;SDS011;5698;47.332;11.180;2022-12-08T10:31:43;4.80;;;2.90;;
11283;SDS011;5698;47.332;11.180;2022-12-08T10:34:13;5.23;;;3.07;;
11283;SDS011;5698;47.332;11.180;2022-12-08T10:36:46;1.77;;;1.60;;
11283;SDS011;5698;47.332;11.180;2022-12-08T10:39:32;3.83;;;1.47;;
11283;SDS011;5698;47.332;11.180;2022-12-08T10:42:01;4.63;;;1.60;;
11283;SDS011;5698;47.332;11.180;2022-12-08T10:44:36;2.40;;;1.63;;
11283;SDS011;5698;47.332;11.180;2022-12-08T10:47:12;3.13;;;2.53;;
11283;SDS011;5698;47.332;11.180;2022-12-08T10:49:40;3.33;;;1.80;;
11283;SDS011;5698;47.332;11.180;2022-12-08T10:52:08;2.90;;;1.87;;
11283;SDS011;5698;47.332;11.180;2022-12-08T10:54:51;5.30;;;2.67;;
11283;SDS011;5698;47.332;11.180;2022-12-08T10:57:19;4.93;;;1.90;;
11283;SDS011;5698;47.332;11.180;2022-12-08T10:59:49;5.30;;;3.20;;
11283;SDS011;5698;47.332;11.180;2022-12-08T11:02:20;4.97;;;2.00;;
11283;SDS011;5698;47.332;11.180;2022-12-08T11:04:48;2.03;;;1.33;;
11283;SDS011;5698;47.332;11.180;2022-12-08T11:07:24;4.80;;;2.50;;
11283;SDS011;5698;47.332;11.180;2022-12-08T11:09:54;2.10;;;1.90;;
11283;SDS011;5698;47.332;11.180;2022-12-08T11:12:25;4.40;;;2.37;;
11283;SDS011;5698;47.332;11.180;2022-12-08T11:14:56;3.60;;;2.47;;
11283;SDS011;5698;47.332;11.180;2022-12-08T11:17:27;3.93;;;2.60;;
11283;SDS011;5698;47.332;11.180;2022-12-08T11:20:17;3.23;;;2.40;;
11283;SDS011;5698;47.332;11.180;2022-12-08T11:22:49;5.00;;;2.60;;
11283;SDS011;5698;47.332;11.180;2022-12-08T11:25:20;2.63;;;2.23;;
11283;SDS011;5698;47.332;11.180;2022-12-08T11:27:49;3.70;;;2.30;;
11283;SDS011;5698;47.332;11.180;2022-12-08T11:30:19;3.10;;;1.57;;
11283;SDS011;5698;47.332;11.180;2022-12-08T11:32:47;3.50;;;1.80;;
11283;SDS011;5698;47.332;11.180;2022-12-08T11:35:21;2.33;;;1.93;;
11283;SDS011;5698;47.332;11.180;2022-12-08T11:37:52;1.90;;;1.70;;
11283;SDS011;5698;47.332;11.180;2022-12-08T11:40:25;1.73;;;1.40;;
11283;SDS011;5698;47.332;11.180;2022-12-08T11:42:57;2.03;;;1.33;;
11283;SDS011;5698;47.332;11.180;2022-12-08T11:45:32;4.17;;;1.13;;
11283;SDS011;5698;47.332;11.180;2022-12-08T11:48:02;1.53;;;1.10;;
11283;SDS011;5698;47.332;11.180;2022-12-08T11:50:39;1.30;;;1.20;;
11283;SDS011;5698;47.332;11.180;2022-12-08T11:53:13;1.80;;;1.10;;
11283;SDS011;5698;47.332;11.180;2022-12-08T11:55:46;1.87;;;1.13;;
11283;SDS011;5698;47.332;11.180;2022-12-08T11:58:18;1.73;;;0.90;;
11283;SDS011;5698;47.332;11.180;2022-12-08T12:00:49;3.27;;;1.30;;
11283;SDS011;5698;47.332;11.180;2022-12-08T12:03:18;2.67;;;1.27;;
11283;SDS011;5698;47.332;11.180;2022-12-08T12:05:56;1.73;;;1.33;;
11283;SDS011;5698;47.332;11.180;2022-12-08T12:08:35;3.47;;;1.50;;
11283;SDS011;5698;47.332;11.180;2022-12-08T12:11:13;2.40;;;1.30;;
11283;SDS011;5698;47.332;11.180;2022-12-08T12:14:04;1.43;;;1.33;;
11283;SDS011;5698;47.332;11.180;2022-12-08T12:16:46;2.40;;;2.00;;
11283;SDS011;5698;47.332;11.180;2022-12-08T12:19:26;4.23;;;1.80;;
11283;SDS011;5698;47.332;11.180;2022-12-08T12:21:56;6.03;;;2.17;;
11283;SDS011;5698;47.332;11.180;2022-12-08T12:24:25;6.40;;;2.80;;
11283;SDS011;5698;47.332;11.180;2022-12-08T12:27:02;5.20;;;3.23;;
11283;SDS011;5698;47.332;11.180;2022-12-08T12:29:32;4.23;;;3.33;;
11283;SDS011;5698;47.332;11.180;2022-12-08T12:32:02;4.37;;;2.83;;
11283;SDS011;5698;47.332;11.180;2022-12-08T12:34:33;4.13;;;3.30;;
11283;SDS011;5698;47.332;11.180;2022-12-08T12:37:04;3.87;;;2.83;;
11283;SDS011;5698;47.332;11.180;2022-12-08T12:39:48;3.13;;;2.53;;
11283;SDS011;5698;47.332;11.180;2022-12-08T12:42:36;3.13;;;2.47;;
11283;SDS011;5698;47.332;11.180;2022-12-08T12:50:49;5.37;;;1.57;;
11283;SDS011;5698;47.332;11.180;2022-12-08T12:59:25;3.00;;;1.37;;
11283;SDS011;5698;47.332;11.180;2022-12-08T13:02:00;3.40;;;1.80;;
11283;SDS011;5698;47.332;11.180;2022-12-08T13:04:31;1.70;;;1.53;;
11283;SDS011;5698;47.332;11.180;2022-12-08T13:07:01;3.60;;;1.50;;
11283;SDS011;5698;47.332;11.180;2022-12-08T13:09:32;2.53;;;1.63;;
11283;SDS011;5698;47.332;11.180;2022-12-08T13:12:06;2.47;;;1.97;;
11283;SDS011;5698;47.332;11.180;2022-12-08T13:14:37;3.70;;;1.77;;
11283;SDS011;5698;47.332;11.180;2022-12-08T13:17:12;1.70;;;1.43;;
11283;SDS011;5698;47.332;11.180;2022-12-08T13:19:42;2.47;;;1.30;;
11283;SDS011;5698;47.332;11.180;2022-12-08T13:28:22;3.40;;;1.70;;
11283;SDS011;5698;47.332;11.180;2022-12-08T13:30:53;2.77;;;1.77;;
11283;SDS011;5698;47.332;11.180;2022-12-08T13:33:25;2.47;;;1.60;;
11283;SDS011;5698;47.332;11.180;2022-12-08T13:38:39;4.23;;;1.90;;
11283;SDS011;5698;47.332;11.180;2022-12-08T13:41:12;3.27;;;1.87;;
11283;SDS011;5698;47.332;11.180;2022-12-08T13:43:46;5.73;;;2.30;;
11283;SDS011;5698;47.332;11.180;2022-12-08T13:46:21;3.67;;;1.57;;
11283;SDS011;5698;47.332;11.180;2022-12-08T13:48:58;2.60;;;2.17;;
11283;SDS011;5698;47.332;11.180;2022-12-08T13:51:26;5.57;;;1.90;;
11283;SDS011;5698;47.332;11.180;2022-12-08T13:53:59;4.90;;;2.93;;
11283;SDS011;5698;47.332;11.180;2022-12-08T13:56:33;4.43;;;2.80;;
11283;SDS011;5698;47.332;11.180;2022-12-08T13:59:06;7.23;;;2.93;;
11283;SDS011;5698;47.332;11.180;2022-12-08T14:01:39;5.63;;;2.90;;
11283;SDS011;5698;47.332;11.180;2022-12-08T14:04:12;9.37;;;3.70;;
11283;SDS011;5698;47.332;11.180;2022-12-08T14:06:41;7.70;;;3.33;;
11283;SDS011;5698;47.332;11.180;2022-12-08T14:09:12;7.97;;;2.87;;
11283;SDS011;5698;47.332;11.180;2022-12-08T14:11:42;4.30;;;2.60;;
11283;SDS011;5698;47.332;11.180;2022-12-08T14:14:13;5.27;;;3.90;;
11283;SDS011;5698;47.332;11.180;2022-12-08T14:16:53;13.17;;;5.10;;
11283;SDS011;5698;47.332;11.180;2022-12-08T14:19:22;10.87;;;5.27;;
11283;SDS011;5698;47.332;11.180;2022-12-08T14:21:53;7.30;;;4.40;;
11283;SDS011;5698;47.332;11.180;2022-12-08T14:24:22;9.47;;;5.67;;
11283;SDS011;5698;47.332;11.180;2022-12-08T14:26:51;13.30;;;5.43;;
11283;SDS011;5698;47.332;11.180;2022-12-08T14:29:27;11.30;;;5.90;;
11283;SDS011;5698;47.332;11.180;2022-12-08T14:32:02;9.37;;;4.73;;
11283;SDS011;5698;47.332;11.180;2022-12-08T14:34:33;8.53;;;4.97;;
11283;SDS011;5698;47.332;11.180;2022-12-08T14:37:04;10.47;;;5.50;;
11283;SDS011;5698;47.332;11.180;2022-12-08T14:39:36;12.47;;;5.93;;
11283;SDS011;5698;47.332;11.180;2022-12-08T14:42:03;10.30;;;5.87;;
11283;SDS011;5698;47.332;11.180;2022-12-08T14:44:32;7.73;;;4.90;;
11283;SDS011;5698;47.332;11.180;2022-12-08T14:47:05;12.77;;;5.23;;
11283;SDS011;5698;47.332;11.180;2022-12-08T14:49:35;7.77;;;4.10;;
11283;SDS011;5698;47.332;11.180;2022-12-08T14:52:07;7.73;;;3.80;;
11283;SDS011;5698;47.332;11.180;2022-12-08T14:54:35;4.80;;;2.60;;
11283;SDS011;5698;47.332;11.180;2022-12-08T14:57:03;5.03;;;3.43;;
11283;SDS011;5698;47.332;11.180;2022-12-08T14:59:32;4.57;;;2.93;;
11283;SDS011;5698;47.332;11.180;2022-12-08T15:02:10;6.83;;;2.97;;
11283;SDS011;5698;47.332;11.180;2022-12-08T15:04:47;5.37;;;3.20;;
11283;SDS011;5698;47.332;11.180;2022-12-08T15:07:20;9.60;;;3.07;;
11283;SDS011;5698;47.332;11.180;2022-12-08T15:09:49;4.23;;;2.30;;
11283;SDS011;5698;47.332;11.180;2022-12-08T15:12:33;5.20;;;2.70;;
11283;SDS011;5698;47.332;11.180;2022-12-08T15:15:01;3.87;;;2.77;;
11283;SDS011;5698;47.332;11.180;2022-12-08T15:17:43;4.00;;;2.73;;
11283;SDS011;5698;47.332;11.180;2022-12-08T15:20:27;7.87;;;4.00;;
11283;SDS011;5698;47.332;11.180;2022-12-08T15:22:59;6.57;;;2.97;;
11283;SDS011;5698;47.332;11.180;2022-12-08T15:25:27;4.90;;;2.97;;
11283;SDS011;5698;47.332;11.180;2022-12-08T15:27:54;3.60;;;2.60;;